Flight Track Log - Related Links

Times and Time Zones

All times are in EDT time to prevent confusion due to time zone crossing. See the ACA831 flight status page for this flight to view local times or setup timezone preferences in your user account.

Time Position Orientation Groundspeed Altitude Reporting Facility
EDT Latitude Longitude Course Direction KTS MPH feet Rate Location/Type
Sat 04:11:27 PM 45.4620 -73.7350 145° Southeast 162 186 200  Level FlightAware ADS-B
Sat 04:11:57 PM 45.4460 -73.7570 224° Southwest 180 207 1,600 2,533 Climbing FlightAware ADS-B
Sat 04:12:12 PM 45.4360 -73.7720 226° Southwest 208 239 2,100 2,550 Climbing FlightAware ADS-B
Sat 04:12:37 PM 45.4170 -73.7980 224° Southwest 244 281 3,300 3,382 Climbing FlightAware ADS-B
Sat 04:13:07 PM 45.3980 -73.8370 235° Southwest 266 306 5,200 4,000 Climbing FlightAware ADS-B
Sat 04:13:22 PM 45.3980 -73.8650 270° West 270 311 6,300 4,500 Climbing FlightAware ADS-B
Sat 04:13:47 PM 45.4000 -73.9080 274° West 276 318 8,200 3,857 Climbing FlightAware ADS-B
Sat 04:14:32 PM 45.4040 -73.9970 274° West 320 368 10,800 3,247 Climbing FlightAware ADS-B
Sat 04:15:12 PM 45.4090 -74.0880 275° West 359 413 12,800 3,600 Climbing FlightAware ADS-B
Sat 04:15:52 PM 45.4340 -74.1750 292° West 368 423 15,600 3,882 Climbing FlightAware ADS-B
Sat 04:16:37 PM 45.4620 -74.2770 291° West 385 443 18,300 3,529 Climbing FlightAware ADS-B
Sat 04:17:17 PM 45.4870 -74.3770 290° West 400 460 20,600 3,106 Climbing FlightAware ADS-B
Sat 04:18:02 PM 45.5050 -74.4930 283° West 418 481 22,700 1,835 Climbing FlightAware ADS-B
Sat 04:18:42 PM 45.4960 -74.6040 263° West 426 490 23,200 1,800 Climbing FlightAware ADS-B
Sat 04:19:22 PM 45.4850 -74.7150 262° West 436 502 25,100 2,682 Climbing FlightAware ADS-B
Sat 04:20:07 PM 45.4580 -74.8390 253° West 451 519 27,000 2,400 Climbing FlightAware ADS-B
Sat 04:20:47 PM 45.4290 -74.9560 251° West 464 534 28,500 2,550 Climbing FlightAware ADS-B
Sat 04:21:27 PM 45.4020 -75.0650 251° West 461 531 30,400 2,894 Climbing FlightAware ADS-B
Sat 04:22:12 PM 45.3690 -75.1950 250° West 452 520 32,600 2,541 Climbing FlightAware ADS-B
Sat 04:22:52 PM 45.3410 -75.3070 250° West 443 510 34,000 988 Climbing FlightAware ADS-B
Sat 04:23:37 PM 45.3090 -75.4310 250° West 435 501 34,000  Level FlightAware ADS-B
Sat 04:24:17 PM 45.2820 -75.5360 250° West 434 499 34,000  Level FlightAware ADS-B
Sat 04:25:02 PM 45.2520 -75.6540 250° West 437 503 34,000  Level FlightAware ADS-B
Sat 04:25:42 PM 45.2270 -75.7510 250° West 438 504 34,000  Level FlightAware ADS-B
Sat 04:26:22 PM 45.1990 -75.8560 249° West 439 505 34,000  Level FlightAware ADS-B
Sat 04:27:07 PM 45.1680 -75.9750 250° West 439 505 34,000  Level FlightAware ADS-B
Sat 04:27:47 PM 45.1370 -76.0920 249° West 440 506 34,000  Level FlightAware ADS-B
Sat 04:28:27 PM 45.1100 -76.1950 250° West 440 506 34,000  Level FlightAware ADS-B
Sat 04:29:12 PM 45.0680 -76.3160 244° Southwest 443 510 34,000  Level FlightAware ADS-B
Sat 04:29:52 PM 45.0300 -76.4120 241° Southwest 443 510 34,000  Level FlightAware ADS-B
Sat 04:30:37 PM 44.9840 -76.5270 241° Southwest 444 511 34,000  Level FlightAware ADS-B
Sat 04:31:17 PM 44.9430 -76.6290 240° Southwest 444 511 34,000  Level FlightAware ADS-B
Sat 04:31:57 PM 44.9050 -76.7240 241° Southwest 442 509 34,000  Level FlightAware ADS-B
Sat 04:32:42 PM 44.8580 -76.8410 240° Southwest 443 510 34,000  Level FlightAware ADS-B
Sat 04:33:22 PM 44.8170 -76.9440 241° Southwest 441 507 34,000  Level FlightAware ADS-B
Sat 04:34:07 PM 44.7710 -77.0570 240° Southwest 441 507 34,000 -353 Level FlightAware ADS-B
Sat 04:34:47 PM 44.7320 -77.1550 241° Southwest 443 510 33,500 -1,575 Descending FlightAware ADS-B
Sat 04:35:27 PM 44.6900 -77.2580 240° Southwest 464 534 31,900 -1,835 Descending FlightAware ADS-B
Sat 04:36:12 PM 44.6410 -77.3780 240° Southwest 462 532 30,900 -1,271 Descending FlightAware ADS-B
Sat 04:36:52 PM 44.5990 -77.4810 240° Southwest 457 526 30,100 -1,350 Descending FlightAware ADS-B
Sat 04:37:32 PM 44.5570 -77.5830 240° Southwest 448 516 29,100 -1,835 Descending FlightAware ADS-B
Sat 04:38:17 PM 44.5150 -77.6840 240° Southwest 439 505 27,500 -2,259 Descending FlightAware ADS-B
Sat 04:38:57 PM 44.4710 -77.7910 240° Southwest 430 495 25,900 -2,329 Descending FlightAware ADS-B
Sat 04:39:42 PM 44.4270 -77.8970 240° Southwest 422 486 24,200 -2,259 Descending FlightAware ADS-B
Sat 04:40:22 PM 44.3870 -77.9910 239° Southwest 414 476 22,700 -2,259 Descending FlightAware ADS-B
Sat 04:41:07 PM 44.3450 -78.0930 240° Southwest 405 466 21,000 -2,118 Descending FlightAware ADS-B
Sat 04:41:47 PM 44.3090 -78.1780 239° Southwest 398 458 19,700 -1,950 Descending FlightAware ADS-B
Sat 04:42:27 PM 44.2730 -78.2630 239° Southwest 393 452 18,400 -2,259 Descending FlightAware ADS-B
Sat 04:43:12 PM 44.2290 -78.3660 239° Southwest 390 449 16,500 -2,329 Descending FlightAware ADS-B
Sat 04:43:52 PM 44.1930 -78.4510 239° Southwest 383 441 15,100 -2,047 Descending FlightAware ADS-B
Sat 04:44:37 PM 44.1530 -78.5460 240° Southwest 377 434 13,600 -2,047 Descending FlightAware ADS-B
Sat 04:45:17 PM 44.1160 -78.6320 239° Southwest 369 425 12,200 -1,950 Descending FlightAware ADS-B
Sat 04:45:57 PM 44.0850 -78.7050 239° Southwest 361 415 11,000 -1,482 Descending FlightAware ADS-B
Sat 04:46:42 PM 44.0450 -78.7950 238° Southwest 332 382 10,100 -943 Descending FlightAware ADS-B
Sat 04:47:07 PM 44.0210 -78.8360 231° Southwest 309 356 9,900 -450 Descending FlightAware ADS-B
Sat 04:47:22 PM 44.0080 -78.8570 229° Southwest 298 343 9,800 -400 Descending FlightAware ADS-B
Sat 04:47:52 PM 43.9810 -78.8970 227° Southwest 275 316 9,600 -764 Descending FlightAware ADS-B
Sat 04:48:17 PM 43.9600 -78.9290 228° Southwest 264 304 9,100 -1,200 Descending FlightAware ADS-B
Sat 04:48:32 PM 43.9470 -78.9470 225° Southwest 254 292 8,800 -1,467 Descending FlightAware ADS-B
Sat 04:49:02 PM 43.9230 -78.9830 227° Southwest 244 281 8,000 -1,636 Descending FlightAware ADS-B
Sat 04:49:27 PM 43.9050 -79.0110 228° Southwest 245 282 7,300 -1,309 Descending FlightAware ADS-B
Sat 04:49:57 PM 43.8810 -79.0460 226° Southwest 242 278 6,800 -667 Descending FlightAware ADS-B
Sat 04:50:12 PM 43.8730 -79.0660 241° Southwest 244 281 6,800 -109 Level FlightAware ADS-B
Sat 04:50:52 PM 43.8710 -79.1260 267° West 226 260 6,700 -327 Descending FlightAware ADS-B
Sat 04:51:07 PM 43.8720 -79.1470 274° West 222 255 6,500 -1,067 Descending FlightAware ADS-B
Sat 04:51:37 PM 43.8730 -79.1900 272° West 222 255 5,900 -1,091 Descending FlightAware ADS-B
Sat 04:52:02 PM 43.8740 -79.2270 272° West 225 259 5,500 -764 Descending FlightAware ADS-B
Sat 04:52:32 PM 43.8750 -79.2690 272° West 228 262 5,200 -600 Descending FlightAware ADS-B
Sat 04:53:12 PM 43.8660 -79.3230 257° West 221 254 4,800 -600 Descending FlightAware ADS-B
Sat 04:53:42 PM 43.8450 -79.3550 228° Southwest 213 245 4,500 -545 Descending FlightAware ADS-B
Sat 04:54:07 PM 43.8280 -79.3800 227° Southwest 210 242 4,300 -545 Descending FlightAware ADS-B
Sat 04:54:37 PM 43.8080 -79.4090 226° Southwest 200 230 4,000 -800 Descending FlightAware ADS-B
Sat 04:55:07 PM 43.7900 -79.4350 226° Southwest 187 215 3,500 -1,050 Descending FlightAware ADS-B
Sat 04:55:17 PM 43.7840 -79.4440 227° Southwest 183 211 3,300 -1,050 Descending FlightAware ADS-B
Sat 04:55:47 PM 43.7670 -79.4690 227° Southwest 179 206 2,800 -982 Descending FlightAware ADS-B
Sat 04:56:12 PM 43.7530 -79.4900 227° Southwest 181 208 2,400 -982 Descending FlightAware ADS-B
Sat 04:56:42 PM 43.7350 -79.5150 225° Southwest 174 200 1,900 -900 Descending FlightAware ADS-B
Sat 04:57:12 PM 43.7200 -79.5380 228° Southwest 163 188 1,500 -873 Descending FlightAware ADS-B
Sat 04:57:37 PM 43.7070 -79.5570 227° Southwest 153 176 1,100 -764 Descending FlightAware ADS-B
Sat 04:58:07 PM 43.6930 -79.5770 226° Southwest 151 174 800 -720 Descending FlightAware ADS-B
Sat 04:58:27 PM 43.6850 -79.5890 227° Southwest 151 174 500 -900 Descending FlightAware ADS-B

Login

Don't have an account? Register now (free) for customized features, flight alerts, and more!